Greenland, Arkansas
Current Conditions -  °F | °C
As of 3:53 PM on Monday 22 Dec 2014 (Local Time) from KFYV Reporting Station
Light Rain Light Rain  
Wind Chill: 50°   Ceiling: 1400
Heat Index: 50°   Visibility: 10mi
Dew Point: 48°   Wind: 8mph
Humidity: 93%   Direction: 230°SW
Pressure: 29.53"   Gusts: NA
Location:  35.99°N, 94.18°W
Report Text: KFYV 222153Z 23007KT 10SM -RA BKN014 BKN021 BKN065 10/09 A2953 RMK AO2 SLP998 P0001 T01000089
Loading
Personal Weather Stations






























Interactive Weather Map New forecast layout! Learn more

10-Day Weather Forecast

Advertisements
Track Severe Weather on mobile